Time;durP1;ratioP1;P1;durP2;ratioP2;P2;SDS_P1;SDS_P2;PMS_P1;PMS_P2;Temp;Humidity;BMP_temperature;BMP_pressure;BME280_temperature;BME280_humidity;BME280_pressure;Samples;Min_cycle;Max_cycle;Signal;HPM_P1;HPM_P2
2023/01/24 00:02:59;;;;;;;19.92;13.43;;;22.90;42.70;;;;;;6118140;28;83964;-62
2023/01/24 00:06:00;;;;;;;20.48;14.38;;;22.80;42.70;;;;;;6124346;28;82961;-62
2023/01/24 00:09:00;;;;;;;19.33;13.77;;;22.80;42.80;;;;;;6127440;28;83295;-62
2023/01/24 00:12:01;;;;;;;17.75;13.20;;;22.80;42.80;;;;;;6126559;28;82974;-62
2023/01/24 00:15:01;;;;;;;20.35;13.98;;;22.80;42.80;;;;;;6144940;28;83518;-62
2023/01/24 00:18:02;;;;;;;18.05;12.98;;;22.80;42.90;;;;;;6149850;28;82782;-63
2023/01/24 00:21:02;;;;;;;17.83;12.60;;;22.80;42.90;;;;;;6139795;28;83540;-63
2023/01/24 00:24:03;;;;;;;17.73;12.63;;;22.80;43.10;;;;;;6136364;28;84947;-62
2023/01/24 00:27:04;;;;;;;16.65;12.32;;;22.80;43.20;;;;;;6117855;28;86253;-62
2023/01/24 00:30:05;;;;;;;17.65;12.30;;;22.80;43.30;;;;;;6129599;28;84203;-61
2023/01/24 00:33:05;;;;;;;15.07;11.57;;;22.80;43.50;;;;;;6118525;28;83202;-61
2023/01/24 00:36:07;;;;;;;17.27;12.32;;;22.80;43.50;;;;;;6123636;28;84912;-62
2023/01/24 00:39:08;;;;;;;17.20;11.85;;;22.80;43.60;;;;;;6122370;28;84322;-62
2023/01/24 00:42:08;;;;;;;18.00;12.63;;;22.70;43.60;;;;;;6106941;28;82991;-61
2023/01/24 00:45:10;;;;;;;19.30;12.68;;;22.70;43.50;;;;;;6113398;28;84138;-62
2023/01/24 00:48:11;;;;;;;17.17;11.27;;;22.70;43.40;;;;;;6113039;28;86456;-61
2023/01/24 00:51:12;;;;;;;15.13;10.82;;;22.70;43.40;;;;;;6110573;28;86041;-68
2023/01/24 00:54:12;;;;;;;15.93;12.13;;;22.70;43.50;;;;;;6120237;28;86678;-66
2023/01/24 00:57:13;;;;;;;16.90;11.57;;;22.70;43.60;;;;;;6113712;28;90376;-67
2023/01/24 01:00:13;;;;;;;16.13;10.90;;;22.70;43.60;;;;;;6135496;28;86151;-66
2023/01/24 01:03:14;;;;;;;15.85;11.52;;;22.70;43.60;;;;;;6126568;28;84219;-66
2023/01/24 01:06:16;;;;;;;17.13;11.27;;;22.70;43.60;;;;;;6101598;28;84493;-65
2023/01/24 01:09:16;;;;;;;16.13;11.88;;;22.70;43.60;;;;;;6113324;28;83163;-62
2023/01/24 01:12:17;;;;;;;15.48;11.13;;;22.70;43.60;;;;;;6118443;28;84249;-63
2023/01/24 01:15:17;;;;;;;13.88;9.88;;;22.70;43.80;;;;;;6120088;28;85814;-62
2023/01/24 01:18:18;;;;;;;15.20;11.15;;;22.60;43.90;;;;;;6118055;28;88268;-62
2023/01/24 01:21:18;;;;;;;14.60;10.38;;;22.60;44.00;;;;;;6106758;28;83041;-61
2023/01/24 01:24:19;;;;;;;14.35;10.23;;;22.60;44.10;;;;;;6133102;28;84172;-62
2023/01/24 01:27:20;;;;;;;15.13;11.25;;;22.60;44.20;;;;;;6102372;28;85785;-63
2023/01/24 01:30:21;;;;;;;14.35;10.38;;;22.60;44.30;;;;;;6101940;28;82885;-62
2023/01/24 01:33:21;;;;;;;14.32;10.05;;;22.60;44.40;;;;;;6102105;28;85697;-62
2023/01/24 01:36:22;;;;;;;16.30;11.48;;;22.60;44.50;;;;;;6129114;28;84089;-60
2023/01/24 01:39:22;;;;;;;14.98;10.38;;;22.60;44.50;;;;;;6118370;28;82907;-60
2023/01/24 01:42:23;;;;;;;12.90;9.57;;;22.60;44.70;;;;;;6103536;28;85939;-61
2023/01/24 01:45:24;;;;;;;15.40;10.48;;;22.60;44.80;;;;;;6105122;28;82940;-60
2023/01/24 01:48:24;;;;;;;13.05;9.52;;;22.60;44.90;;;;;;6102186;28;83160;-61
2023/01/24 01:51:25;;;;;;;16.63;10.65;;;22.60;44.80;;;;;;6116589;28;85809;-60
2023/01/24 01:54:25;;;;;;;12.27;9.45;;;22.50;44.80;;;;;;6108599;28;85110;-62
2023/01/24 01:57:27;;;;;;;14.88;10.02;;;22.50;44.90;;;;;;6128306;28;83550;-63
2023/01/24 02:00:28;;;;;;;14.07;10.02;;;22.50;44.90;;;;;;6146005;28;83444;-62
2023/01/24 02:03:40;;;;;;;13.10;9.15;;;22.50;44.80;;;;;;6125495;28;83556;-62
2023/01/24 02:06:41;;;;;;;14.13;9.93;;;22.50;45.00;;;;;;6151528;28;84184;-62
2023/01/24 02:09:42;;;;;;;14.68;10.15;;;22.50;45.00;;;;;;6129765;28;80715;-61
2023/01/24 02:12:42;;;;;;;13.02;9.57;;;22.50;44.90;;;;;;6135048;28;83554;-60
2023/01/24 02:19:02;;;;;;;15.43;9.55;;;22.50;44.70;;;;;;6126488;28;82306;-61
2023/01/24 02:22:02;;;;;;;12.80;9.35;;;22.50;44.60;;;;;;6134775;28;81800;-61
2023/01/24 02:25:04;;;;;;;13.55;9.18;;;22.50;44.60;;;;;;6154399;28;83391;-60
2023/01/24 02:28:04;;;;;;;14.18;9.45;;;22.50;44.50;;;;;;6127270;28;80631;-61
2023/01/24 02:31:05;;;;;;;13.00;9.02;;;22.50;44.50;;;;;;6105293;28;83090;-61
2023/01/24 02:34:06;;;;;;;12.77;8.38;;;22.50;44.50;;;;;;6109808;28;80558;-61
2023/01/24 02:37:06;;;;;;;9.98;7.43;;;22.50;44.90;;;;;;6125011;28;80756;-60
2023/01/24 02:40:07;;;;;;;10.23;7.80;;;22.40;44.90;;;;;;6140459;28;83058;-60
2023/01/24 02:43:10;;;;;;;9.98;6.95;;;22.50;45.00;;;;;;6119952;28;83794;-61
2023/01/24 02:46:10;;;;;;;10.88;7.63;;;22.50;45.00;;;;;;6142297;28;83090;-61
2023/01/24 02:49:11;;;;;;;9.48;7.13;;;22.50;45.10;;;;;;6119936;28;80586;-60
2023/01/24 02:55:31;;;;;;;10.57;7.35;;;22.50;45.00;;;;;;6131410;28;83206;-61
2023/01/24 02:58:31;;;;;;;9.18;6.85;;;22.50;44.90;;;;;;6130221;28;83049;-61
2023/01/24 03:01:32;;;;;;;7.90;6.20;;;22.50;45.00;;;;;;6141693;28;83163;-61
2023/01/24 03:04:32;;;;;;;9.45;6.68;;;22.50;45.20;;;;;;6108242;28;83175;-61
2023/01/24 03:07:41;;;;;;;7.40;6.35;;;22.50;45.30;;;;;;6127321;28;87905;-61
2023/01/24 03:10:42;;;;;;;8.48;6.40;;;22.50;45.30;;;;;;6121966;28;83303;-61
2023/01/24 03:37:01;;;;;;;8.88;6.28;;;22.40;45.40;;;;;;6106935;28;80455;-60
2023/01/24 03:40:03;;;;;;;9.45;6.22;;;22.40;45.30;;;;;;6145515;28;84095;-60
2023/01/24 03:43:05;;;;;;;7.82;5.95;;;22.40;45.40;;;;;;6122162;28;85968;-61
2023/01/24 03:46:09;;;;;;;9.02;6.70;;;22.40;45.70;;;;;;6119294;28;83059;-61
2023/01/24 03:52:50;;;;;;;8.30;6.40;;;22.40;45.60;;;;;;6124167;28;83103;-60
2023/01/24 03:55:50;;;;;;;8.48;6.50;;;22.40;45.60;;;;;;6128898;28;83226;-60
2023/01/24 03:58:53;;;;;;;8.43;6.47;;;22.40;45.60;;;;;;6129656;28;84100;-59
2023/01/24 04:01:55;;;;;;;8.65;6.78;;;22.40;45.50;;;;;;6132321;28;82886;-60
2023/01/24 04:05:12;;;;;;;10.27;6.97;;;22.40;45.30;;;;;;6124585;28;82466;-60
2023/01/24 04:08:13;;;;;;;10.25;7.03;;;22.40;45.20;;;;;;6131747;28;82779;-60
2023/01/24 04:11:14;;;;;;;10.75;7.70;;;22.40;45.20;;;;;;6131971;28;82650;-60
2023/01/24 04:14:15;;;;;;;10.52;7.10;;;22.40;45.10;;;;;;6147510;28;82997;-60
2023/01/24 04:17:42;;;;;;;9.05;6.30;;;22.40;45.10;;;;;;6130006;28;81663;-61
2023/01/24 04:20:44;;;;;;;9.30;7.28;;;22.50;45.30;;;;;;6140093;28;83123;-60
2023/01/24 04:23:45;;;;;;;13.00;7.72;;;22.50;44.60;;;;;;6116342;28;82679;-60
2023/01/24 04:26:46;;;;;;;10.73;7.18;;;22.50;44.60;;;;;;6115793;28;81572;-59
2023/01/24 04:29:52;;;;;;;10.45;7.43;;;22.60;44.50;;;;;;6120419;28;82748;-50
2023/01/24 04:32:53;;;;;;;9.48;7.28;;;22.60;44.30;;;;;;6134525;28;81535;-50
2023/01/24 04:35:58;;;;;;;9.63;7.15;;;22.70;44.30;;;;;;6116297;28;83659;-51
2023/01/24 04:38:58;;;;;;;11.63;6.82;;;22.70;44.30;;;;;;6124120;28;83169;-48
2023/01/24 04:42:05;;;;;;;10.50;7.00;;;22.70;44.60;;;;;;6125017;28;87997;-49
2023/01/24 04:45:06;;;;;;;9.40;5.95;;;22.80;44.70;;;;;;6129843;28;82921;-56
2023/01/24 04:48:07;;;;;;;9.98;7.00;;;22.80;44.50;;;;;;6114200;28;83919;-48
2023/01/24 04:51:09;;;;;;;8.73;6.68;;;22.90;44.10;;;;;;6115320;28;81437;-53
2023/01/24 04:54:10;;;;;;;9.38;6.45;;;22.90;43.90;;;;;;6120527;28;83535;-53
2023/01/24 04:57:11;;;;;;;11.23;6.95;;;23.00;44.00;;;;;;6131424;28;82457;-50
2023/01/24 05:00:11;;;;;;;12.60;6.97;;;23.00;43.50;;;;;;6117017;28;83215;-59
2023/01/24 05:03:12;;;;;;;8.55;6.43;;;23.00;43.40;;;;;;6121562;28;83101;-66
2023/01/24 05:06:13;;;;;;;9.07;6.85;;;23.10;43.30;;;;;;6122867;28;83306;-55
2023/01/24 05:09:13;;;;;;;15.52;7.10;;;23.10;43.50;;;;;;6121664;28;83295;-69
2023/01/24 05:12:29;;;;;;;12.90;6.47;;;23.10;43.40;;;;;;6128871;28;82353;-60
2023/01/24 05:15:34;;;;;;;9.32;5.97;;;23.10;43.20;;;;;;6125373;28;83380;-47
2023/01/24 05:18:36;;;;;;;11.73;6.40;;;23.20;42.90;;;;;;6122203;28;81667;-51
2023/01/24 05:21:37;;;;;;;10.32;6.07;;;23.20;43.40;;;;;;6160485;28;83313;-51
2023/01/24 05:24:38;;;;;;;13.00;6.05;;;23.20;43.30;;;;;;6142227;28;82392;-50
2023/01/24 05:27:40;;;;;;;11.00;6.90;;;23.20;43.40;;;;;;6111744;28;83296;-63
2023/01/24 05:30:40;;;;;;;11.20;6.00;;;23.20;44.00;;;;;;6116582;28;83246;-59
2023/01/24 05:33:53;;;;;;;8.85;5.88;;;23.20;43.70;;;;;;6139221;28;83278;-59
2023/01/24 05:36:55;;;;;;;11.85;6.00;;;23.20;43.70;;;;;;6094565;28;83788;-48
2023/01/24 05:39:56;;;;;;;7.93;6.40;;;23.20;43.50;;;;;;6125318;28;81762;-52
2023/01/24 05:42:57;;;;;;;20.02;6.03;;;23.20;44.00;;;;;;6125940;28;82752;-53
2023/01/24 05:45:58;;;;;;;12.23;6.10;;;23.10;43.90;;;;;;6127575;28;83252;-54
2023/01/24 05:48:58;;;;;;;9.02;5.07;;;23.20;43.60;;;;;;6122424;28;82737;-49
2023/01/24 05:51:59;;;;;;;14.38;6.55;;;23.20;43.50;;;;;;6140638;28;82803;-53
2023/01/24 05:55:26;;;;;;;9.02;6.40;;;23.10;43.40;;;;;;6118543;28;81409;-51
2023/01/24 05:58:27;;;;;;;9.75;5.90;;;23.10;43.30;;;;;;6119418;28;82940;-50
2023/01/24 06:01:37;;;;;;;8.93;6.32;;;23.10;43.30;;;;;;6126769;28;83173;-63
2023/01/24 06:04:37;;;;;;;18.90;6.18;;;23.10;43.30;;;;;;6139023;28;83492;-60
2023/01/24 06:07:38;;;;;;;9.75;6.30;;;23.10;43.40;;;;;;6116220;28;82869;-61
2023/01/24 06:10:39;;;;;;;10.07;6.75;;;23.00;43.10;;;;;;6129773;28;82286;-60
2023/01/24 06:13:42;;;;;;;9.25;6.55;;;23.00;43.10;;;;;;6127561;28;83251;-61
2023/01/24 06:16:43;;;;;;;8.48;6.50;;;23.00;43.00;;;;;;6114120;28;82954;-61
2023/01/24 06:19:44;;;;;;;9.70;6.40;;;22.90;42.80;;;;;;6126716;28;83354;-61
2023/01/24 06:22:45;;;;;;;10.98;6.75;;;22.90;42.80;;;;;;6120734;28;82460;-61
2023/01/24 06:25:45;;;;;;;12.07;7.05;;;22.90;42.50;;;;;;6104575;28;85048;-61
2023/01/24 06:28:46;;;;;;;9.73;6.50;;;22.90;42.70;;;;;;6099803;28;82660;-61
2023/01/24 06:31:46;;;;;;;11.50;7.30;;;22.80;42.40;;;;;;6113213;28;81253;-61
2023/01/24 06:34:47;;;;;;;9.00;6.53;;;22.80;42.50;;;;;;6103527;28;80892;-61
2023/01/24 06:37:47;;;;;;;10.15;6.82;;;22.80;42.50;;;;;;6119963;28;80460;-61
2023/01/24 06:40:48;;;;;;;9.18;6.85;;;22.80;42.40;;;;;;6132453;28;81749;-48
2023/01/24 06:43:49;;;;;;;10.75;7.45;;;22.80;42.30;;;;;;6115054;28;81149;-48
2023/01/24 06:46:49;;;;;;;9.45;7.13;;;22.70;42.30;;;;;;6123769;28;80628;-53
2023/01/24 06:49:50;;;;;;;10.18;7.03;;;22.70;41.90;;;;;;6107958;28;81229;-52
2023/01/24 06:52:52;;;;;;;9.85;6.95;;;22.70;41.80;;;;;;6118195;28;80530;-50
2023/01/24 06:55:53;;;;;;;9.95;7.00;;;22.70;41.90;;;;;;6114776;28;80153;-49
2023/01/24 06:58:53;;;;;;;10.60;7.60;;;22.60;41.70;;;;;;6113013;28;80893;-51
2023/01/24 07:01:54;;;;;;;9.10;6.80;;;22.60;41.80;;;;;;6108961;28;80512;-52
2023/01/24 07:04:54;;;;;;;9.40;6.75;;;22.50;41.60;;;;;;6115575;28;81744;-51
2023/01/24 07:07:55;;;;;;;9.90;7.53;;;22.50;41.60;;;;;;6116532;28;80554;-49
2023/01/24 07:10:56;;;;;;;10.18;7.40;;;22.50;41.50;;;;;;6123451;28;80145;-50
2023/01/24 07:13:56;;;;;;;10.93;7.43;;;22.50;41.40;;;;;;6116259;28;80401;-49
2023/01/24 07:16:57;;;;;;;9.23;6.80;;;22.50;41.40;;;;;;6106167;28;80729;-49
2023/01/24 07:19:57;;;;;;;11.23;7.22;;;22.50;41.40;;;;;;6116114;28;80630;-51
2023/01/24 07:22:58;;;;;;;9.82;6.63;;;22.50;41.30;;;;;;6108353;28;80169;-48
2023/01/24 07:25:59;;;;;;;9.57;7.03;;;22.40;41.20;;;;;;6109354;28;81744;-53
2023/01/24 07:28:59;;;;;;;9.35;6.82;;;22.40;41.20;;;;;;6102721;28;80686;-50
2023/01/24 07:32:00;;;;;;;8.52;6.40;;;22.40;41.10;;;;;;6103541;28;81832;-47
2023/01/24 07:35:00;;;;;;;8.55;6.63;;;22.40;41.00;;;;;;6103153;28;81664;-52
2023/01/24 07:38:01;;;;;;;8.00;6.30;;;22.40;41.00;;;;;;6110305;28;80578;-53
2023/01/24 07:41:01;;;;;;;8.18;6.50;;;22.40;40.90;;;;;;6117629;28;80564;-49
2023/01/24 07:44:05;;;;;;;8.32;6.40;;;22.40;41.00;;;;;;6110554;28;81762;-49
2023/01/24 07:47:06;;;;;;;8.50;5.80;;;22.40;41.00;;;;;;6109300;28;80525;-52
2023/01/24 07:50:06;;;;;;;8.68;6.15;;;22.40;41.10;;;;;;6108771;28;80584;-48
2023/01/24 07:53:10;;;;;;;7.65;6.28;;;22.40;41.20;;;;;;6121342;28;81955;-50
2023/01/24 07:56:10;;;;;;;9.23;6.57;;;22.40;41.10;;;;;;6120291;28;80306;-54
2023/01/24 07:59:11;;;;;;;8.52;5.95;;;22.40;41.30;;;;;;6108715;28;80805;-53
2023/01/24 08:02:12;;;;;;;8.52;5.85;;;22.30;41.40;;;;;;6107351;28;80383;-49
2023/01/24 08:05:12;;;;;;;8.52;6.10;;;22.30;41.40;;;;;;6117492;28;81541;-50
2023/01/24 08:08:13;;;;;;;6.93;5.60;;;22.30;41.50;;;;;;6113800;28;84097;-49
2023/01/24 08:11:17;;;;;;;7.68;5.85;;;22.30;41.60;;;;;;6126019;28;80949;-52
2023/01/24 08:14:17;;;;;;;8.55;5.90;;;22.30;41.70;;;;;;6125440;28;80427;-50
2023/01/24 08:17:18;;;;;;;8.60;6.07;;;22.30;41.70;;;;;;6110823;28;80507;-52
2023/01/24 08:20:18;;;;;;;7.07;5.72;;;22.30;41.80;;;;;;6120175;28;80890;-51
2023/01/24 08:23:19;;;;;;;8.25;5.97;;;22.30;41.90;;;;;;6110647;28;80514;-56
2023/01/24 08:26:19;;;;;;;6.65;5.35;;;22.30;41.80;;;;;;6118959;28;80378;-53
2023/01/24 08:29:20;;;;;;;6.45;5.30;;;22.30;42.00;;;;;;6125660;28;80344;-57
2023/01/24 08:32:20;;;;;;;7.85;5.65;;;22.30;42.10;;;;;;6136623;28;82183;-56
2023/01/24 08:35:21;;;;;;;6.47;5.18;;;22.30;42.10;;;;;;6112426;28;80665;-56
2023/01/24 08:38:22;;;;;;;6.43;5.53;;;22.30;42.20;;;;;;6112831;28;80675;-56
2023/01/24 08:41:23;;;;;;;8.40;6.20;;;22.30;42.20;;;;;;6129522;28;82204;-57
2023/01/24 08:44:23;;;;;;;7.15;5.88;;;22.30;42.30;;;;;;6106643;28;80343;-56
2023/01/24 08:47:24;;;;;;;8.05;5.95;;;22.30;42.40;;;;;;6119634;28;80045;-54
2023/01/24 08:50:24;;;;;;;8.18;5.95;;;22.30;42.60;;;;;;6126520;28;82026;-55
2023/01/24 08:53:25;;;;;;;6.78;5.05;;;22.20;42.70;;;;;;6109583;28;80449;-56
2023/01/24 08:56:25;;;;;;;7.65;5.88;;;22.20;42.60;;;;;;6106273;28;81120;-56
2023/01/24 08:59:26;;;;;;;7.28;6.18;;;22.20;42.70;;;;;;6121489;28;80300;-55
2023/01/24 09:02:26;;;;;;;6.68;5.60;;;22.20;42.70;;;;;;6116265;28;81964;-55
2023/01/24 09:05:27;;;;;;;7.35;5.47;;;22.20;42.70;;;;;;6121087;28;81338;-56
2023/01/24 09:08:29;;;;;;;8.02;5.57;;;22.20;42.80;;;;;;6106474;28;82221;-56
2023/01/24 09:11:29;;;;;;;7.45;5.75;;;22.20;42.80;;;;;;6126226;28;80346;-56
2023/01/24 09:14:30;;;;;;;7.45;6.07;;;22.20;42.90;;;;;;6110045;28;81893;-57
2023/01/24 09:17:32;;;;;;;6.93;5.63;;;22.20;42.80;;;;;;6123738;28;81991;-56
2023/01/24 09:20:32;;;;;;;7.88;5.82;;;22.20;42.90;;;;;;6116103;28;79981;-57
2023/01/24 09:23:33;;;;;;;8.55;5.80;;;22.20;42.90;;;;;;6106969;28;87630;-56
2023/01/24 09:26:33;;;;;;;8.45;5.97;;;22.20;42.90;;;;;;6109323;28;80464;-55
2023/01/24 09:29:34;;;;;;;9.65;6.43;;;22.20;42.70;;;;;;6116822;28;80644;-56
2023/01/24 09:32:34;;;;;;;8.13;6.38;;;22.20;42.70;;;;;;6108321;28;80415;-57
2023/01/24 09:35:35;;;;;;;8.90;6.30;;;22.20;42.70;;;;;;6120924;28;80761;-57
2023/01/24 09:38:35;;;;;;;8.48;6.43;;;22.20;42.70;;;;;;6128722;28;80725;-56
2023/01/24 09:41:36;;;;;;;9.75;7.28;;;22.20;42.60;;;;;;6128243;28;80858;-54
2023/01/24 09:44:37;;;;;;;8.57;6.90;;;22.20;42.60;;;;;;6128567;28;80614;-57
2023/01/24 09:47:37;;;;;;;9.38;7.00;;;22.20;42.60;;;;;;6128369;28;81024;-56
2023/01/24 09:50:38;;;;;;;8.27;6.07;;;22.20;42.60;;;;;;6137826;28;80552;-57
2023/01/24 09:53:38;;;;;;;8.68;6.47;;;22.20;42.60;;;;;;6107470;28;81030;-57
2023/01/24 09:56:39;;;;;;;9.52;6.80;;;22.20;42.70;;;;;;6110305;28;81106;-58
2023/01/24 09:59:39;;;;;;;9.18;7.30;;;22.20;42.60;;;;;;6116932;28;80203;-58
2023/01/24 10:02:42;;;;;;;9.88;7.40;;;22.20;42.50;;;;;;6116755;28;80427;-56
2023/01/24 10:05:42;;;;;;;11.57;8.38;;;22.20;42.60;;;;;;6108623;28;80698;-56
2023/01/24 10:08:43;;;;;;;9.95;7.28;;;22.20;42.60;;;;;;6105801;28;81303;-56
2023/01/24 10:11:43;;;;;;;10.82;7.93;;;22.20;42.60;;;;;;6125155;28;83598;-56
2023/01/24 10:14:44;;;;;;;9.93;7.38;;;22.20;42.70;;;;;;6107281;28;82387;-56
2023/01/24 10:17:44;;;;;;;10.40;7.50;;;22.20;42.70;;;;;;6115510;28;80472;-53
2023/01/24 10:20:45;;;;;;;9.63;7.20;;;22.20;42.70;;;;;;6120175;28;80702;-56
2023/01/24 10:23:45;;;;;;;10.30;7.70;;;22.20;42.80;;;;;;6107068;28;80862;-56
2023/01/24 10:26:46;;;;;;;9.52;7.57;;;22.20;42.70;;;;;;6114959;28;82142;-56
2023/01/24 10:29:46;;;;;;;12.32;8.20;;;22.20;42.80;;;;;;6102922;28;80261;-56
2023/01/24 10:32:47;;;;;;;9.85;7.25;;;22.20;42.80;;;;;;6107463;28;81902;-56
2023/01/24 10:35:49;;;;;;;10.93;8.07;;;22.20;42.90;;;;;;6107085;28;81213;-55
2023/01/24 10:38:50;;;;;;;11.90;7.80;;;22.20;42.80;;;;;;6103531;28;80745;-56
2023/01/24 10:41:50;;;;;;;10.88;8.02;;;22.20;42.70;;;;;;6108381;28;80834;-56
2023/01/24 10:44:51;;;;;;;10.88;7.72;;;22.20;42.80;;;;;;6124007;28;81999;-58
2023/01/24 10:47:56;;;;;;;10.52;7.38;;;22.20;42.80;;;;;;6126396;28;80799;-57
2023/01/24 10:50:56;;;;;;;9.80;7.70;;;22.20;42.90;;;;;;6114742;28;81934;-58
2023/01/24 10:53:57;;;;;;;11.52;7.80;;;22.20;42.90;;;;;;6103102;28;80474;-57
2023/01/24 10:56:57;;;;;;;11.00;7.93;;;22.20;43.00;;;;;;6103049;28;81668;-56
2023/01/24 10:59:58;;;;;;;9.98;7.43;;;22.20;42.90;;;;;;6104406;28;80988;-57
2023/01/24 11:02:59;;;;;;;9.48;7.18;;;22.20;42.90;;;;;;6114625;28;80448;-56
2023/01/24 11:05:59;;;;;;;10.02;7.47;;;22.20;42.90;;;;;;6111885;28;80798;-56
2023/01/24 11:09:00;;;;;;;10.13;7.13;;;22.20;42.80;;;;;;6104807;28;80454;-57
2023/01/24 11:12:00;;;;;;;10.82;7.20;;;22.20;42.80;;;;;;6125725;28;80515;-56
2023/01/24 11:15:01;;;;;;;10.45;7.22;;;22.20;42.80;;;;;;6126889;28;81048;-57
2023/01/24 11:18:01;;;;;;;9.27;7.60;;;22.20;42.70;;;;;;6110748;28;80717;-56
2023/01/24 11:21:02;;;;;;;10.10;7.57;;;22.20;42.80;;;;;;6126715;28;80601;-56
2023/01/24 11:24:02;;;;;;;11.77;8.23;;;22.20;42.80;;;;;;6124817;28;81213;-57
2023/01/24 11:27:03;;;;;;;11.88;7.13;;;22.20;42.70;;;;;;6111835;28;81080;-57
2023/01/24 11:30:03;;;;;;;10.32;6.75;;;22.10;42.80;;;;;;6133352;28;83699;-58
2023/01/24 11:33:04;;;;;;;13.30;7.82;;;22.10;42.80;;;;;;6128552;28;80558;-62
2023/01/24 11:36:04;;;;;;;9.40;6.93;;;22.10;42.80;;;;;;6105319;28;83236;-62
2023/01/24 11:39:05;;;;;;;11.50;7.95;;;22.20;42.70;;;;;;6133758;28;80457;-63
2023/01/24 11:42:06;;;;;;;11.07;6.88;;;22.10;42.70;;;;;;6151582;28;80503;-62
2023/01/24 11:45:06;;;;;;;8.80;7.03;;;22.10;42.70;;;;;;6145141;28;81255;-62
2023/01/24 11:48:07;;;;;;;9.60;7.22;;;22.10;42.70;;;;;;6141698;28;81177;-62
2023/01/24 11:51:07;;;;;;;9.85;7.18;;;22.20;42.60;;;;;;6129879;28;80311;-62
2023/01/24 11:54:08;;;;;;;11.05;7.70;;;22.20;42.70;;;;;;6141661;28;80991;-62
2023/01/24 11:57:09;;;;;;;9.80;6.85;;;22.20;42.60;;;;;;6142136;28;81131;-61
2023/01/24 12:00:09;;;;;;;8.48;6.53;;;22.10;42.60;;;;;;6128884;28;80730;-61
2023/01/24 12:03:10;;;;;;;9.85;7.15;;;22.10;42.60;;;;;;6141240;28;80381;-62
2023/01/24 12:06:10;;;;;;;8.88;6.82;;;22.20;42.70;;;;;;6134074;28;80456;-61
2023/01/24 12:09:11;;;;;;;9.60;7.10;;;22.20;42.80;;;;;;6153119;28;80865;-57
2023/01/24 12:12:12;;;;;;;9.60;6.78;;;22.20;42.70;;;;;;6138774;28;80857;-56
2023/01/24 12:15:12;;;;;;;8.05;6.57;;;22.20;42.70;;;;;;6137072;28;80456;-57
2023/01/24 12:18:13;;;;;;;10.48;7.40;;;22.10;42.70;;;;;;6138467;28;81038;-55
2023/01/24 12:21:13;;;;;;;10.18;7.10;;;22.10;42.70;;;;;;6130492;28;80364;-56
2023/01/24 12:24:14;;;;;;;9.20;6.55;;;22.10;42.70;;;;;;6128135;28;81179;-54
2023/01/24 12:27:14;;;;;;;9.35;6.53;;;22.10;42.70;;;;;;6124929;28;80361;-56
2023/01/24 12:30:15;;;;;;;9.45;6.88;;;22.10;42.70;;;;;;6125269;28;80603;-54
2023/01/24 12:33:15;;;;;;;9.75;6.97;;;22.10;42.70;;;;;;6121082;28;80408;-56
2023/01/24 12:36:16;;;;;;;9.88;7.10;;;22.10;42.70;;;;;;6128496;28;81788;-56
2023/01/24 12:39:16;;;;;;;10.32;7.25;;;22.10;42.70;;;;;;6128978;28;80076;-55
2023/01/24 12:42:17;;;;;;;9.35;6.22;;;22.10;42.70;;;;;;6128265;28;80590;-56
2023/01/24 12:45:18;;;;;;;9.75;6.90;;;22.10;42.70;;;;;;6126962;28;80450;-54
2023/01/24 12:48:18;;;;;;;8.45;6.38;;;22.10;42.70;;;;;;6132607;28;80877;-57
2023/01/24 12:51:21;;;;;;;7.10;5.82;;;22.10;42.60;;;;;;6149336;28;80690;-57
2023/01/24 12:54:21;;;;;;;13.50;6.63;;;22.10;42.70;;;;;;6140361;28;80947;-57
2023/01/24 12:57:22;;;;;;;9.32;6.25;;;22.10;42.70;;;;;;6128930;28;80692;-57
2023/01/24 13:00:23;;;;;;;9.23;6.72;;;22.10;42.70;;;;;;6127446;28;82028;-57
2023/01/24 13:03:23;;;;;;;6.68;5.53;;;22.10;42.60;;;;;;6137640;28;80587;-57
2023/01/24 13:06:25;;;;;;;9.60;6.18;;;22.10;42.60;;;;;;6134347;28;80243;-58
2023/01/24 13:09:25;;;;;;;7.45;6.07;;;22.10;42.50;;;;;;6128640;28;80554;-57
2023/01/24 13:12:26;;;;;;;8.43;5.90;;;22.10;42.40;;;;;;6127780;28;81195;-57
2023/01/24 13:15:26;;;;;;;6.53;5.55;;;22.10;42.50;;;;;;6128572;28;83800;-57
2023/01/24 13:18:27;;;;;;;7.47;5.90;;;22.00;42.40;;;;;;6128405;28;80605;-58
2023/01/24 13:21:27;;;;;;;8.75;6.13;;;22.10;42.40;;;;;;6128354;28;80395;-56
2023/01/24 13:24:28;;;;;;;6.65;5.47;;;22.00;42.30;;;;;;6115443;28;80396;-57
2023/01/24 13:27:28;;;;;;;8.68;5.95;;;22.10;42.30;;;;;;6121958;28;81022;-56
2023/01/24 13:30:29;;;;;;;7.32;5.78;;;22.10;42.40;;;;;;6120254;28;80587;-55
2023/01/24 13:33:29;;;;;;;7.53;5.80;;;22.10;42.30;;;;;;6136829;28;80849;-56
2023/01/24 13:36:30;;;;;;;7.30;5.60;;;22.10;42.40;;;;;;6141391;28;80309;-56
2023/01/24 13:39:31;;;;;;;8.10;5.60;;;22.00;42.20;;;;;;6129007;28;80294;-57
2023/01/24 13:42:31;;;;;;;7.65;5.57;;;22.00;42.40;;;;;;6137041;28;80739;-56
2023/01/24 13:45:34;;;;;;;7.53;5.70;;;22.00;42.20;;;;;;6128006;28;80683;-57
2023/01/24 13:48:34;;;;;;;7.30;5.55;;;22.00;42.20;;;;;;6116555;28;80351;-56
2023/01/24 13:51:35;;;;;;;9.55;5.22;;;22.10;42.20;;;;;;6116976;28;80484;-57
2023/01/24 13:54:39;;;;;;;7.50;5.03;;;22.00;42.30;;;;;;6115826;28;81741;-57
2023/01/24 13:57:42;;;;;;;6.57;5.30;;;22.00;42.30;;;;;;6117616;28;80420;-56
2023/01/24 14:00:43;;;;;;;7.07;5.30;;;22.00;42.30;;;;;;6105170;28;80839;-63
2023/01/24 14:03:43;;;;;;;6.20;4.85;;;22.00;42.40;;;;;;6116600;28;80368;-63
2023/01/24 14:06:44;;;;;;;7.43;5.65;;;22.00;42.40;;;;;;6128231;28;80109;-62
2023/01/24 14:09:44;;;;;;;6.65;5.07;;;22.00;42.40;;;;;;6126812;28;81984;-62
2023/01/24 14:12:45;;;;;;;6.55;5.18;;;22.00;42.30;;;;;;6121849;28;80425;-62
2023/01/24 14:15:45;;;;;;;7.32;5.25;;;22.00;42.30;;;;;;6125635;28;81455;-62
2023/01/24 14:18:46;;;;;;;5.43;4.30;;;22.00;42.30;;;;;;6148837;28;80410;-54
2023/01/24 14:21:46;;;;;;;7.30;5.00;;;22.00;42.30;;;;;;6140918;28;81131;-55
2023/01/24 14:24:47;;;;;;;7.15;5.18;;;22.00;42.20;;;;;;6137745;28;81036;-58
2023/01/24 14:27:48;;;;;;;6.43;4.60;;;22.10;42.20;;;;;;6120709;28;80508;-58
2023/01/24 14:30:48;;;;;;;5.10;4.53;;;22.00;42.20;;;;;;6121538;28;80344;-57
2023/01/24 14:33:49;;;;;;;6.60;5.10;;;22.00;42.20;;;;;;6103913;28;82409;-57
2023/01/24 14:36:50;;;;;;;6.28;4.60;;;22.00;42.20;;;;;;6134143;28;80259;-51
2023/01/24 14:39:51;;;;;;;6.18;4.22;;;22.00;42.20;;;;;;6144264;28;81052;-54
2023/01/24 14:42:52;;;;;;;6.03;4.45;;;22.00;42.20;;;;;;6128148;28;80806;-52
2023/01/24 14:45:52;;;;;;;5.85;4.63;;;22.00;42.20;;;;;;6127250;28;82435;-55
2023/01/24 14:48:53;;;;;;;7.13;4.95;;;22.00;42.10;;;;;;6147383;28;80423;-54
2023/01/24 14:51:54;;;;;;;5.97;4.72;;;22.00;42.10;;;;;;6128795;28;80480;-52
2023/01/24 14:54:54;;;;;;;7.53;4.85;;;22.00;42.30;;;;;;6114008;28;80712;-52
2023/01/24 14:57:55;;;;;;;8.48;4.60;;;22.00;42.20;;;;;;6133257;28;80479;-52
2023/01/24 15:00:55;;;;;;;8.07;5.18;;;22.10;42.50;;;;;;6116718;28;81526;-54
2023/01/24 15:03:56;;;;;;;9.85;4.75;;;22.10;42.50;;;;;;6114275;28;80680;-53
2023/01/24 15:06:57;;;;;;;7.35;4.57;;;22.10;42.80;;;;;;6123136;28;81528;-52
2023/01/24 15:09:57;;;;;;;8.63;4.70;;;22.20;42.70;;;;;;6119976;28;80599;-50
2023/01/24 15:12:58;;;;;;;7.57;4.88;;;22.20;43.00;;;;;;6114878;28;81659;-63
2023/01/24 15:15:58;;;;;;;8.30;4.72;;;22.20;43.00;;;;;;6127685;28;80574;-69
2023/01/24 15:18:59;;;;;;;8.52;4.65;;;22.20;43.30;;;;;;6092678;28;84098;-65
2023/01/24 15:21:59;;;;;;;6.85;4.40;;;22.20;43.30;;;;;;6107281;28;80701;-65
2023/01/24 15:25:00;;;;;;;6.22;4.30;;;22.30;44.00;;;;;;6106001;28;83081;-62
2023/01/24 15:28:00;;;;;;;7.03;4.93;;;22.30;44.00;;;;;;6106643;28;81366;-68
2023/01/24 15:31:01;;;;;;;4.80;3.90;;;22.30;44.40;;;;;;6106453;28;83971;-66
2023/01/24 15:34:02;;;;;;;18.95;5.15;;;22.30;44.20;;;;;;6116649;28;80781;-53
2023/01/24 15:37:02;;;;;;;9.57;4.38;;;22.30;44.10;;;;;;6114123;28;80400;-51
2023/01/24 15:40:03;;;;;;;6.20;4.22;;;22.30;43.50;;;;;;6111181;28;88212;-53
2023/01/24 15:49:42;;;;;;;9.05;4.38;;;22.60;42.70;;;;;;6121486;28;81685;-60
2023/01/24 15:52:42;;;;;;;5.03;4.10;;;22.60;42.90;;;;;;6129292;28;80641;-62
2023/01/24 15:55:43;;;;;;;10.88;4.60;;;22.70;42.90;;;;;;6110717;28;87496;-64
2023/01/24 15:58:43;;;;;;;8.15;5.15;;;22.70;42.90;;;;;;6122276;28;80457;-61
2023/01/24 16:01:44;;;;;;;7.88;4.95;;;22.70;43.20;;;;;;6118154;28;80488;-61
2023/01/24 16:04:45;;;;;;;8.85;4.65;;;22.80;43.30;;;;;;6106980;28;84930;-62
2023/01/24 16:07:46;;;;;;;10.15;4.75;;;22.90;43.60;;;;;;6104567;28;81766;-62
2023/01/24 16:10:46;;;;;;;8.40;4.78;;;22.90;43.60;;;;;;6101127;28;82334;-61
2023/01/24 16:13:47;;;;;;;10.00;4.50;;;23.00;43.60;;;;;;6090712;28;80944;-63
2023/01/24 16:16:47;;;;;;;7.32;4.60;;;23.00;43.80;;;;;;6096954;28;80615;-64